Time;durP1;ratioP1;P1;durP2;ratioP2;P2;SDS_P1;SDS_P2;PMS_P1;PMS_P2;Temp;Humidity;BMP_temperature;BMP_pressure;BME280_temperature;BME280_humidity;BME280_pressure;Samples;Min_cycle;Max_cycle;Signal;HPM_P1;HPM_P2
2022/09/15 00:00:55;;;;;;;5.90;2.77;;;13.70;99.90;;;;;;4860525;29;20429;-47
2022/09/15 00:03:22;;;;;;;6.23;2.43;;;13.70;99.90;;;;;;4860391;29;20193;-48
2022/09/15 00:05:49;;;;;;;9.07;2.00;;;13.70;99.90;;;;;;4857621;29;20268;-48
2022/09/15 00:08:15;;;;;;;3.50;2.03;;;13.70;99.90;;;;;;4860674;29;20426;-47
2022/09/15 00:10:49;;;;;;;3.40;2.07;;;13.70;99.90;;;;;;4859989;29;20518;-48
2022/09/15 00:13:15;;;;;;;4.20;2.10;;;13.70;99.90;;;;;;4860120;29;20469;-47
2022/09/15 00:15:42;;;;;;;4.93;2.13;;;13.80;1.00;;;;;;4860623;29;20402;-47
2022/09/15 00:18:07;;;;;;;7.87;2.10;;;13.90;1.00;;;;;;4860244;29;20430;-47
2022/09/15 00:20:33;;;;;;;4.93;2.33;;;13.90;1.00;;;;;;4858808;29;20446;-47
2022/09/15 00:22:58;;;;;;;6.77;2.30;;;14.00;1.00;;;;;;4843447;29;20212;-47
2022/09/15 00:25:24;;;;;;;3.80;1.80;;;14.00;1.00;;;;;;4859722;29;20193;-48
2022/09/15 00:27:50;;;;;;;4.60;2.40;;;14.00;1.00;;;;;;4860002;29;20196;-48
2022/09/15 00:30:15;;;;;;;4.63;2.20;;;14.00;99.90;;;;;;4860127;29;20246;-47
2022/09/15 00:32:41;;;;;;;10.50;2.33;;;13.90;23.70;;;;;;4857239;29;20292;-48
2022/09/15 00:35:07;;;;;;;3.50;2.53;;;13.80;1.00;;;;;;4859754;29;20624;-47
2022/09/15 00:37:33;;;;;;;5.33;2.57;;;13.80;1.00;;;;;;4859721;29;20189;-47
2022/09/15 00:39:58;;;;;;;7.70;2.53;;;13.70;99.90;;;;;;4858217;29;20453;-48
2022/09/15 00:42:24;;;;;;;13.93;3.00;;;13.60;1.00;;;;;;4857954;29;20442;-47
2022/09/15 00:44:59;;;;;;;8.60;3.37;;;13.60;1.00;;;;;;4857693;29;20273;-56
2022/09/15 00:47:30;;;;;;;5.07;3.80;;;13.60;99.90;;;;;;4859366;29;20484;-48
2022/09/15 00:50:04;;;;;;;5.60;2.80;;;13.50;99.90;;;;;;4860662;29;20538;-48
2022/09/15 00:52:37;;;;;;;5.33;3.07;;;13.50;99.90;;;;;;4862915;29;20805;-47
2022/09/15 00:55:06;;;;;;;7.93;2.67;;;13.50;1.00;;;;;;4859506;29;20889;-48
2022/09/15 00:57:47;;;;;;;8.30;3.00;;;13.50;1.00;;;;;;4858905;29;20457;-48
2022/09/15 01:00:17;;;;;;;6.50;2.20;;;13.50;99.90;;;;;;4857660;29;20533;-47
2022/09/15 01:02:45;;;;;;;6.73;2.70;;;13.40;99.90;;;;;;4858622;29;20978;-48
2022/09/15 01:05:14;;;;;;;4.00;2.57;;;13.40;99.90;;;;;;4858777;29;20457;-47
2022/09/15 01:07:42;;;;;;;4.13;2.40;;;13.40;1.00;;;;;;4859551;29;20908;-48
2022/09/15 01:10:18;;;;;;;6.30;3.13;;;13.40;1.00;;;;;;4859180;29;20477;-47
2022/09/15 01:12:44;;;;;;;5.90;3.13;;;13.40;1.00;;;;;;4858363;29;20453;-48
2022/09/15 01:15:10;;;;;;;7.23;2.50;;;13.40;1.00;;;;;;4859611;29;20430;-48
2022/09/15 01:18:11;;;;;;;10.53;2.97;;;13.50;1.00;;;;;;4859115;29;20480;-52
2022/09/15 01:21:01;;;;;;;4.10;2.60;;;13.50;1.00;;;;;;4859267;29;20250;-48
2022/09/15 01:23:47;;;;;;;7.87;3.00;;;13.50;1.00;;;;;;4878180;29;20528;-48
2022/09/15 01:26:38;;;;;;;5.80;2.57;;;13.50;1.00;;;;;;5068030;28;20580;-48
2022/09/15 01:29:19;;;;;;;8.17;3.00;;;13.50;1.00;;;;;;5065190;28;20523;-48
2022/09/15 01:35:12;;;;;;;4.90;2.90;;;13.50;1.00;;;;;;5068000;28;20873;-48
2022/09/15 01:37:46;;;;;;;4.83;2.50;;;13.50;1.00;;;;;;5066279;28;20738;-49
2022/09/15 01:40:14;;;;;;;5.00;2.93;;;13.50;1.00;;;;;;5066868;28;20968;-48
2022/09/15 01:42:43;;;;;;;5.57;2.70;;;13.60;1.00;;;;;;5067389;28;20413;-48
2022/09/15 01:45:24;;;;;;;6.53;3.00;;;13.60;1.00;;;;;;5067716;28;20452;-48
2022/09/15 01:47:53;;;;;;;5.43;2.47;;;13.70;1.00;;;;;;5066679;28;20912;-47
2022/09/15 01:50:27;;;;;;;5.33;2.70;;;13.60;1.00;;;;;;5066614;28;21081;-48
2022/09/15 01:52:56;;;;;;;6.37;3.37;;;13.60;1.00;;;;;;5065591;28;20838;-48
2022/09/15 01:55:27;;;;;;;4.50;2.80;;;13.60;1.00;;;;;;5065658;28;20894;-48
2022/09/15 01:57:53;;;;;;;11.47;2.77;;;13.60;1.00;;;;;;5057268;28;20462;-48
2022/09/15 02:00:19;;;;;;;7.87;3.10;;;13.60;1.00;;;;;;5052813;28;20433;-49
2022/09/15 02:02:54;;;;;;;9.70;2.97;;;13.60;1.00;;;;;;5067144;28;20651;-48
2022/09/15 02:05:29;;;;;;;7.00;2.70;;;13.60;1.00;;;;;;5065621;28;20773;-48
2022/09/15 02:08:04;;;;;;;6.20;3.17;;;13.60;1.00;;;;;;5058571;28;20448;-48
2022/09/15 02:10:52;;;;;;;7.20;2.40;;;13.60;1.00;;;;;;5060640;28;20601;-48
2022/09/15 02:14:09;;;;;;;5.17;3.10;;;13.60;1.00;;;;;;5056477;28;20440;-48
2022/09/15 02:16:35;;;;;;;4.73;2.93;;;13.50;99.90;;;;;;5049540;28;20782;-48
2022/09/15 02:19:09;;;;;;;3.67;2.80;;;13.50;99.90;;;;;;5065748;28;20446;-48
2022/09/15 02:21:54;;;;;;;7.40;3.03;;;13.60;99.90;;;;;;5059471;28;20428;-48
2022/09/15 02:24:34;;;;;;;5.30;2.90;;;13.60;99.90;;;;;;5046659;28;20868;-47
2022/09/15 02:27:00;;;;;;;7.53;2.50;;;13.60;99.90;;;;;;5046702;28;20393;-48
2022/09/15 02:29:29;;;;;;;5.73;3.53;;;13.50;99.90;;;;;;5046917;28;20421;-47
2022/09/15 02:31:58;;;;;;;8.90;2.87;;;13.60;99.90;;;;;;5060079;28;20885;-49
2022/09/15 02:34:29;;;;;;;6.13;2.63;;;13.60;99.90;;;;;;5054467;28;20444;-48
2022/09/15 02:36:55;;;;;;;6.27;3.50;;;13.60;1.00;;;;;;5041987;28;20783;-48
2022/09/15 02:39:28;;;;;;;6.60;2.77;;;13.60;1.00;;;;;;5036882;28;20453;-49
2022/09/15 02:41:53;;;;;;;7.70;3.40;;;13.60;1.00;;;;;;5050566;28;20437;-48
2022/09/15 02:44:19;;;;;;;5.00;3.67;;;13.50;1.00;;;;;;5052628;28;20467;-47
2022/09/15 02:46:44;;;;;;;6.70;2.97;;;13.50;1.00;;;;;;5052913;28;20178;-48
2022/09/15 02:49:10;;;;;;;9.27;3.60;;;13.50;1.00;;;;;;5041420;28;20202;-48
2022/09/15 02:51:36;;;;;;;4.33;2.83;;;13.40;1.00;;;;;;5031474;28;20236;-48
2022/09/15 02:54:01;;;;;;;8.17;4.10;;;13.50;1.00;;;;;;5031468;28;20194;-48
2022/09/15 02:56:27;;;;;;;5.83;3.23;;;13.50;1.00;;;;;;5032050;28;20197;-48
2022/09/15 02:58:52;;;;;;;9.23;3.00;;;13.40;1.00;;;;;;5033080;28;20624;-49
2022/09/15 03:01:18;;;;;;;12.23;3.93;;;13.50;1.00;;;;;;5033350;28;20576;-48
2022/09/15 03:03:45;;;;;;;4.87;3.00;;;13.50;7.00;;;;;;5030661;28;21714;-49
2022/09/15 03:06:19;;;;;;;6.00;2.97;;;13.40;11.60;;;;;;5032810;28;20221;-48
2022/09/15 03:08:57;;;;;;;7.30;2.90;;;13.40;23.60;;;;;;5030684;28;20444;-48
2022/09/15 03:11:24;;;;;;;9.83;3.50;;;13.40;41.80;;;;;;5030435;28;20437;-48
2022/09/15 03:13:59;;;;;;;5.00;3.17;;;13.30;52.20;;;;;;5034973;28;20597;-48
2022/09/15 03:16:25;;;;;;;7.13;3.60;;;13.30;82.30;;;;;;5033724;28;21420;-48
2022/09/15 03:18:53;;;;;;;7.77;3.20;;;13.30;99.90;;;;;;5031341;28;21196;-48
2022/09/15 03:21:19;;;;;;;8.27;3.63;;;13.30;99.90;;;;;;5029643;28;20444;-48
2022/09/15 03:23:45;;;;;;;8.03;3.77;;;13.30;99.90;;;;;;5030961;28;20525;-49
2022/09/15 03:26:11;;;;;;;8.13;3.23;;;13.30;99.90;;;;;;5030350;28;20587;-49
2022/09/15 03:28:37;;;;;;;6.63;3.10;;;13.40;99.90;;;;;;5034111;28;20233;-48
2022/09/15 03:31:04;;;;;;;5.40;3.40;;;13.40;99.90;;;;;;5036519;28;20218;-48
2022/09/15 03:33:30;;;;;;;11.83;3.50;;;13.40;99.90;;;;;;5033892;28;22259;-48
2022/09/15 03:35:56;;;;;;;8.43;3.40;;;13.40;99.90;;;;;;5030815;28;20452;-48
2022/09/15 03:38:22;;;;;;;12.80;3.70;;;13.40;99.90;;;;;;5034548;28;20190;-48
2022/09/15 03:41:06;;;;;;;6.97;3.70;;;13.40;99.90;;;;;;5029734;28;20429;-48
2022/09/15 03:43:33;;;;;;;5.30;3.30;;;13.40;99.90;;;;;;5032481;28;20190;-48
2022/09/15 03:45:59;;;;;;;8.20;3.83;;;13.40;99.90;;;;;;5030261;28;20476;-48
2022/09/15 03:48:26;;;;;;;4.60;3.33;;;13.40;99.90;;;;;;5033184;28;20440;-48
2022/09/15 03:50:52;;;;;;;7.60;2.90;;;13.40;99.90;;;;;;5035206;28;20437;-48
2022/09/15 03:53:19;;;;;;;4.73;2.73;;;13.40;99.90;;;;;;5029380;28;20445;-49
2022/09/15 03:55:45;;;;;;;7.60;2.90;;;13.40;99.90;;;;;;5029175;28;20675;-48
2022/09/15 03:58:12;;;;;;;5.40;2.97;;;13.40;99.90;;;;;;5031005;28;21200;-48
2022/09/15 04:00:38;;;;;;;8.53;3.00;;;13.30;99.90;;;;;;5046005;28;20449;-49
2022/09/15 04:03:03;;;;;;;4.70;2.60;;;13.30;99.90;;;;;;5044404;28;20446;-48
2022/09/15 04:05:29;;;;;;;7.33;2.50;;;13.30;99.90;;;;;;5032068;28;20468;-48
2022/09/15 04:07:55;;;;;;;14.10;2.90;;;13.30;99.90;;;;;;5047080;28;20194;-49
2022/09/15 04:10:23;;;;;;;5.67;2.90;;;13.30;99.90;;;;;;5048712;28;20198;-49
2022/09/15 04:12:49;;;;;;;13.23;2.90;;;13.30;99.90;;;;;;5042461;28;20191;-48
2022/09/15 04:15:15;;;;;;;8.17;3.17;;;13.30;99.90;;;;;;5031681;28;20421;-48
2022/09/15 04:17:41;;;;;;;10.10;3.60;;;13.30;99.90;;;;;;5031886;28;20456;-49
2022/09/15 04:20:07;;;;;;;9.80;3.30;;;13.30;99.90;;;;;;5035840;28;20194;-48
2022/09/15 04:22:33;;;;;;;10.20;3.10;;;13.30;99.90;;;;;;5048834;28;20817;-48
2022/09/15 04:24:58;;;;;;;11.70;3.10;;;13.20;99.90;;;;;;5046797;28;20496;-48
2022/09/15 04:27:24;;;;;;;12.07;3.10;;;13.20;99.90;;;;;;5048460;28;20190;-48
2022/09/15 04:29:51;;;;;;;10.67;3.57;;;13.20;99.90;;;;;;5049615;28;20276;-49
2022/09/15 04:32:18;;;;;;;10.63;3.40;;;13.20;99.90;;;;;;5040967;28;20799;-49
2022/09/15 04:34:43;;;;;;;16.07;4.83;;;13.30;99.90;;;;;;5039712;28;20540;-48
2022/09/15 04:37:09;;;;;;;9.27;4.43;;;13.30;99.90;;;;;;5029314;28;22138;-48
2022/09/15 04:39:35;;;;;;;16.03;4.63;;;13.30;99.90;;;;;;5030054;28;20213;-48
2022/09/15 04:42:04;;;;;;;15.07;4.40;;;13.30;99.90;;;;;;5033355;28;20343;-48
2022/09/15 04:44:29;;;;;;;13.00;3.93;;;13.30;99.90;;;;;;5049522;28;20333;-48
2022/09/15 04:46:55;;;;;;;13.30;4.40;;;13.30;99.90;;;;;;5040686;28;20646;-48
2022/09/15 04:49:20;;;;;;;10.83;4.37;;;13.30;99.90;;;;;;5034208;28;20646;-48
2022/09/15 04:51:46;;;;;;;13.03;3.97;;;13.40;99.90;;;;;;5044582;28;20294;-48
2022/09/15 04:54:11;;;;;;;9.73;3.57;;;13.40;99.90;;;;;;5049074;28;20201;-47
2022/09/15 04:56:38;;;;;;;7.07;2.40;;;13.40;99.90;;;;;;5039240;28;20662;-48
2022/09/15 04:59:03;;;;;;;10.30;3.13;;;13.30;99.90;;;;;;5047926;28;20184;-49
2022/09/15 05:01:32;;;;;;;7.70;2.97;;;13.40;99.90;;;;;;5033762;28;20436;-48
2022/09/15 05:04:00;;;;;;;15.77;2.80;;;13.30;99.90;;;;;;5042538;28;20194;-48
2022/09/15 05:06:26;;;;;;;8.83;2.70;;;13.30;99.90;;;;;;5046260;28;20498;-48
2022/09/15 05:08:55;;;;;;;12.00;2.57;;;13.30;99.90;;;;;;5048492;28;20452;-48
2022/09/15 05:11:22;;;;;;;7.17;2.17;;;13.30;99.90;;;;;;5049681;28;20451;-47
2022/09/15 05:13:47;;;;;;;5.70;1.80;;;13.30;99.90;;;;;;5049060;28;20432;-48
2022/09/15 05:16:19;;;;;;;8.27;2.00;;;13.20;99.90;;;;;;5047176;28;20437;-48
2022/09/15 05:18:46;;;;;;;5.67;2.17;;;13.20;99.90;;;;;;5035333;28;20195;-48
2022/09/15 05:21:13;;;;;;;3.20;1.77;;;13.20;99.90;;;;;;5046455;28;20989;-49
2022/09/15 05:23:39;;;;;;;7.23;2.50;;;13.20;99.90;;;;;;5050243;28;20413;-48
2022/09/15 05:26:08;;;;;;;10.43;2.03;;;13.20;99.90;;;;;;5036932;28;20520;-49
2022/09/15 05:28:35;;;;;;;9.33;2.23;;;13.20;99.90;;;;;;5046418;28;20885;-48
2022/09/15 05:31:06;;;;;;;7.93;2.27;;;13.20;99.90;;;;;;5041325;28;20524;-47
2022/09/15 05:33:33;;;;;;;13.17;2.93;;;13.20;90.90;;;;;;5034129;28;20532;-48
2022/09/15 05:35:59;;;;;;;15.93;2.60;;;13.20;74.50;;;;;;5030493;28;20394;-48
2022/09/15 05:38:28;;;;;;;11.20;2.73;;;13.30;64.60;;;;;;5043881;28;20446;-47
2022/09/15 05:40:59;;;;;;;7.07;2.70;;;13.30;49.60;;;;;;5048539;28;20578;-48
2022/09/15 05:43:25;;;;;;;7.30;2.10;;;13.40;24.90;;;;;;5050245;28;20413;-48
2022/09/15 05:45:54;;;;;;;12.30;3.07;;;13.40;1.00;;;;;;5041582;28;21082;-48
2022/09/15 05:48:20;;;;;;;12.90;2.87;;;13.40;1.00;;;;;;5033480;28;20235;-49
2022/09/15 05:50:50;;;;;;;7.30;2.60;;;13.50;1.00;;;;;;5049993;28;20495;-48
2022/09/15 05:53:16;;;;;;;7.33;2.70;;;13.50;1.00;;;;;;5030401;28;20206;-48
2022/09/15 05:55:41;;;;;;;5.30;2.63;;;13.50;1.00;;;;;;5039064;28;21013;-47
2022/09/15 05:58:07;;;;;;;8.37;2.10;;;13.50;1.00;;;;;;5039472;28;20190;-48
2022/09/15 06:00:33;;;;;;;8.03;2.40;;;13.50;1.00;;;;;;5050024;28;20183;-48
2022/09/15 06:02:59;;;;;;;6.23;2.03;;;13.60;1.00;;;;;;5038820;28;20195;-49
2022/09/15 06:05:25;;;;;;;7.80;2.70;;;13.60;1.00;;;;;;5034746;28;20215;-47
2022/09/15 06:07:54;;;;;;;14.63;2.30;;;13.70;1.00;;;;;;5043595;28;20309;-47
2022/09/15 06:10:23;;;;;;;4.43;2.00;;;13.70;1.00;;;;;;5049901;28;20214;-48
2022/09/15 06:12:52;;;;;;;8.57;2.40;;;13.70;99.90;;;;;;5040725;28;20441;-48
2022/09/15 06:15:21;;;;;;;10.97;2.20;;;13.80;99.90;;;;;;5033657;28;20489;-48
2022/09/15 06:17:47;;;;;;;7.37;2.00;;;13.70;99.90;;;;;;5037204;28;20503;-46
2022/09/15 06:20:13;;;;;;;8.70;1.93;;;13.70;99.90;;;;;;5053759;28;20433;-47
2022/09/15 06:22:38;;;;;;;5.60;2.20;;;13.70;99.90;;;;;;5052016;28;20655;-46
2022/09/15 06:25:05;;;;;;;6.60;2.17;;;13.70;99.90;;;;;;5052685;28;20265;-47
2022/09/15 06:27:31;;;;;;;7.60;2.77;;;13.70;99.90;;;;;;5053948;28;20178;-47
2022/09/15 06:29:59;;;;;;;6.47;1.83;;;13.80;99.90;;;;;;5053583;28;20421;-47
2022/09/15 06:32:26;;;;;;;15.30;2.63;;;13.90;99.90;;;;;;5085268;28;20400;-46
2022/09/15 06:34:52;;;;;;;12.77;2.20;;;14.00;99.90;;;;;;5048038;28;20436;-46
2022/09/15 06:37:18;;;;;;;7.93;2.07;;;14.10;76.70;;;;;;5071471;28;20495;-46
2022/09/15 06:39:44;;;;;;;9.50;2.20;;;14.10;1.00;;;;;;5053284;28;20412;-46
2022/09/15 06:42:10;;;;;;;7.80;1.90;;;14.10;1.00;;;;;;5053265;28;20201;-46
2022/09/15 06:44:36;;;;;;;12.20;1.80;;;14.00;1.00;;;;;;5050595;28;20312;-46
2022/09/15 06:47:02;;;;;;;14.20;2.63;;;13.90;1.00;;;;;;5056192;28;20432;-46
2022/09/15 06:49:28;;;;;;;6.77;1.40;;;13.90;1.00;;;;;;5049645;28;21151;-46
2022/09/15 06:51:55;;;;;;;8.63;1.60;;;13.70;99.90;;;;;;5054034;28;20183;-46
2022/09/15 06:54:20;;;;;;;5.07;1.50;;;13.70;99.90;;;;;;5037591;28;20716;-47
2022/09/15 06:56:46;;;;;;;7.77;2.03;;;13.70;1.00;;;;;;5050994;28;20417;-46
2022/09/15 06:59:13;;;;;;;8.23;1.60;;;13.70;1.00;;;;;;5051473;28;20651;-48
2022/09/15 07:01:39;;;;;;;6.53;1.60;;;13.80;1.00;;;;;;5048816;28;20197;-48
2022/09/15 07:04:07;;;;;;;6.53;1.80;;;13.90;1.00;;;;;;5043265;28;20947;-48
2022/09/15 07:06:33;;;;;;;5.17;2.00;;;14.40;1.00;;;;;;5042820;28;20199;-48
2022/09/15 07:09:00;;;;;;;9.17;1.90;;;14.90;99.90;;;;;;5051972;28;20941;-48
2022/09/15 07:11:26;;;;;;;5.80;1.80;;;15.50;46.40;;;;;;5049882;28;20459;-49
2022/09/15 07:13:52;;;;;;;5.40;1.80;;;15.70;1.00;;;;;;5044062;28;20425;-47
2022/09/15 07:16:18;;;;;;;9.03;1.60;;;15.70;99.90;;;;;;5052879;28;20705;-48
2022/09/15 07:18:46;;;;;;;5.83;1.90;;;15.60;99.90;;;;;;5052843;28;20494;-48
2022/09/15 07:21:13;;;;;;;3.47;1.60;;;15.60;99.90;;;;;;5052445;28;20874;-48
2022/09/15 07:23:39;;;;;;;5.67;1.80;;;15.50;1.00;;;;;;5051262;28;20451;-48
2022/09/15 07:26:13;;;;;;;9.50;2.33;;;15.30;1.00;;;;;;5037282;28;20493;-48
2022/09/15 07:28:41;;;;;;;7.07;1.67;;;15.30;99.90;;;;;;5032881;28;20874;-47
2022/09/15 07:31:09;;;;;;;12.10;2.47;;;15.20;1.00;;;;;;5032910;28;20456;-48
2022/09/15 07:33:35;;;;;;;7.43;1.60;;;15.00;99.90;;;;;;5032394;28;20406;-48
2022/09/15 07:36:02;;;;;;;7.10;1.93;;;14.90;1.00;;;;;;5032392;28;20812;-48
2022/09/15 07:38:28;;;;;;;7.00;1.80;;;14.90;9.40;;;;;;5032543;28;20433;-48
2022/09/15 07:40:54;;;;;;;6.90;1.90;;;14.80;1.00;;;;;;5040821;28;20539;-48
2022/09/15 07:43:19;;;;;;;7.93;1.67;;;15.20;51.00;;;;;;5039458;28;20193;-48
2022/09/15 07:45:45;;;;;;;11.87;2.50;;;15.60;99.90;;;;;;5051761;28;20279;-48
2022/09/15 07:48:11;;;;;;;5.87;1.70;;;16.20;99.90;;;;;;5051721;28;20676;-48
2022/09/15 07:50:36;;;;;;;8.53;2.10;;;17.10;1.00;;;;;;5051864;28;20817;-49
2022/09/15 07:53:02;;;;;;;4.50;1.90;;;17.80;99.90;;;;;;5051650;28;20177;-48
2022/09/15 07:55:29;;;;;;;5.77;1.60;;;18.30;99.90;;;;;;5051814;28;20279;-48
2022/09/15 07:58:02;;;;;;;4.70;1.50;;;18.80;99.90;;;;;;5051536;28;20902;-48
2022/09/15 08:00:28;;;;;;;7.20;1.40;;;19.20;1.00;;;;;;5051757;28;20397;-49
2022/09/15 08:02:55;;;;;;;4.70;1.30;;;19.60;1.00;;;;;;5051256;28;20421;-48
2022/09/15 08:05:25;;;;;;;6.77;1.53;;;19.90;1.00;;;;;;5043974;28;21004;-49
2022/09/15 08:07:51;;;;;;;5.03;1.70;;;20.30;1.00;;;;;;5051066;28;20444;-48
2022/09/15 08:10:16;;;;;;;6.23;1.43;;;20.40;1.00;;;;;;5051552;28;20439;-48
2022/09/15 08:12:42;;;;;;;5.50;1.90;;;20.50;1.00;;;;;;5051861;28;20517;-48
2022/09/15 08:15:08;;;;;;;5.33;2.47;;;20.20;1.00;;;;;;5051440;28;20225;-48
2022/09/15 08:17:34;;;;;;;7.50;1.60;;;20.20;1.00;;;;;;5051654;28;20178;-48
2022/09/15 08:19:59;;;;;;;7.10;1.33;;;20.00;1.00;;;;;;5050274;28;20913;-49
2022/09/15 08:22:25;;;;;;;6.27;1.43;;;19.90;1.00;;;;;;5049500;28;20201;-49
2022/09/15 08:24:51;;;;;;;6.10;1.73;;;19.80;1.00;;;;;;5050922;28;20238;-48
2022/09/15 08:27:16;;;;;;;5.63;1.80;;;19.90;1.00;;;;;;5051062;28;20631;-48
2022/09/15 08:29:42;;;;;;;4.80;1.40;;;20.10;1.00;;;;;;5051467;28;20663;-48
2022/09/15 08:32:08;;;;;;;5.67;1.30;;;20.40;1.00;;;;;;5050881;28;20190;-48
2022/09/15 08:34:33;;;;;;;5.00;1.50;;;20.80;1.00;;;;;;5050499;28;20198;-49
2022/09/15 08:36:59;;;;;;;6.10;1.87;;;21.30;1.00;;;;;;5051000;28;20405;-49
2022/09/15 08:39:24;;;;;;;5.03;1.50;;;21.60;1.00;;;;;;5050942;28;20166;-48
2022/09/15 08:41:52;;;;;;;4.63;1.40;;;21.60;1.00;;;;;;5051062;28;20228;-48
2022/09/15 08:44:42;;;;;;;6.33;1.83;;;21.60;1.00;;;;;;5050540;28;20754;-49
2022/09/15 08:47:12;;;;;;;3.53;1.20;;;21.70;1.00;;;;;;5050587;28;20516;-49
2022/09/15 08:49:54;;;;;;;3.07;1.10;;;22.10;1.00;;;;;;5051112;28;20779;-49
2022/09/15 08:52:29;;;;;;;6.53;1.37;;;22.50;1.00;;;;;;5051176;28;20397;-49
2022/09/15 08:54:58;;;;;;;4.10;1.33;;;22.60;99.90;;;;;;5050659;28;20952;-49
2022/09/15 08:57:25;;;;;;;9.67;1.50;;;22.10;99.90;;;;;;5050433;28;20424;-48
2022/09/15 08:59:53;;;;;;;8.07;1.40;;;21.80;99.90;;;;;;5050383;28;20427;-48
2022/09/15 09:03:00;;;;;;;4.87;1.37;;;21.60;99.90;;;;;;5050062;28;20432;-48
2022/09/15 09:05:41;;;;;;;6.17;1.03;;;21.70;99.90;;;;;;5034390;28;20483;-49
2022/09/15 09:08:29;;;;;;;4.93;1.43;;;21.50;99.90;;;;;;5050417;28;20405;-49
2022/09/15 09:11:13;;;;;;;8.07;1.23;;;21.10;99.90;;;;;;5050299;28;20755;-48
2022/09/15 09:13:55;;;;;;;5.20;1.40;;;21.10;99.90;;;;;;5050342;28;20412;-48
2022/09/15 09:17:06;;;;;;;5.70;1.53;;;21.00;99.90;;;;;;5050577;28;20423;-48
2022/09/15 09:20:01;;;;;;;3.93;1.30;;;20.70;99.90;;;;;;5050625;28;20401;-49
2022/09/15 09:22:32;;;;;;;7.10;1.73;;;20.40;99.90;;;;;;5050526;28;20412;-49
2022/09/15 09:25:01;;;;;;;5.07;1.47;;;20.00;99.90;;;;;;5050009;28;20492;-48
2022/09/15 09:27:32;;;;;;;3.43;1.03;;;19.90;99.90;;;;;;5049997;28;20400;-48
2022/09/15 09:30:13;;;;;;;7.60;1.50;;;19.70;99.90;;;;;;5050175;28;20397;-48
2022/09/15 09:32:54;;;;;;;8.47;1.80;;;19.30;99.90;;;;;;5050218;28;20767;-48
2022/09/15 09:35:43;;;;;;;7.07;1.60;;;18.90;99.90;;;;;;5050638;28;20455;-46
2022/09/15 09:38:17;;;;;;;2.57;1.50;;;18.50;99.90;;;;;;5050010;28;21256;-45
2022/09/15 09:40:43;;;;;;;14.50;1.60;;;17.80;1.00;;;;;;5050511;28;20929;-46
2022/09/15 09:43:09;;;;;;;3.73;1.60;;;17.20;1.00;;;;;;5050366;28;20875;-46
2022/09/15 09:45:35;;;;;;;2.80;1.23;;;16.50;1.00;;;;;;5049964;28;20467;-47
2022/09/15 09:48:13;;;;;;;9.87;1.80;;;15.90;1.00;;;;;;5055085;28;20408;-46
2022/09/15 09:50:42;;;;;;;3.20;1.30;;;15.70;1.00;;;;;;5055730;28;20392;-52
2022/09/15 09:53:26;;;;;;;5.53;1.47;;;15.50;1.00;;;;;;5055446;28;20464;-46
2022/09/15 09:55:54;;;;;;;9.50;1.80;;;15.40;1.00;;;;;;5055800;28;20419;-46
2022/09/15 09:58:24;;;;;;;9.57;1.63;;;15.50;1.00;;;;;;5055122;28;20524;-46
2022/09/15 10:00:51;;;;;;;5.67;1.83;;;15.60;1.00;;;;;;5055278;28;20439;-46
2022/09/15 10:03:21;;;;;;;5.80;2.10;;;15.90;1.00;;;;;;5055385;28;20890;-46
2022/09/15 10:06:10;;;;;;;3.53;1.60;;;16.20;1.00;;;;;;5048456;28;20468;-46
2022/09/15 10:08:37;;;;;;;4.90;1.40;;;16.60;1.00;;;;;;5055709;28;20405;-46
2022/09/15 10:11:05;;;;;;;6.47;1.80;;;17.00;1.00;;;;;;5055590;28;20656;-47
2022/09/15 10:13:48;;;;;;;5.80;1.87;;;17.20;1.00;;;;;;5054911;28;20412;-46
2022/09/15 10:16:17;;;;;;;4.63;1.40;;;17.40;1.00;;;;;;5055229;28;20441;-46
2022/09/15 10:18:43;;;;;;;2.93;0.97;;;17.90;1.00;;;;;;5055001;28;20424;-46
2022/09/15 10:21:10;;;;;;;3.93;1.20;;;17.80;1.00;;;;;;5055472;28;20458;-46
2022/09/15 10:23:35;;;;;;;1.47;0.90;;;17.90;1.00;;;;;;5052823;28;20448;-46
2022/09/15 10:26:24;;;;;;;8.93;1.40;;;18.10;1.00;;;;;;5054616;28;20495;-46
2022/09/15 10:29:14;;;;;;;4.70;1.30;;;18.00;1.00;;;;;;5054698;28;20519;-46
2022/09/15 10:31:41;;;;;;;2.90;1.10;;;17.90;1.00;;;;;;5055000;28;20512;-47
2022/09/15 10:34:27;;;;;;;4.23;1.50;;;17.70;1.00;;;;;;5054815;28;20780;-46
2022/09/15 10:36:59;;;;;;;3.83;1.20;;;17.80;1.00;;;;;;5054693;28;20393;-46
2022/09/15 10:39:50;;;;;;;3.40;1.00;;;18.30;1.00;;;;;;5055294;28;20499;-46
2022/09/15 10:42:21;;;;;;;9.13;1.50;;;18.80;1.00;;;;;;5045760;28;20529;-48
2022/09/15 10:44:56;;;;;;;3.00;1.17;;;19.40;1.00;;;;;;5054922;28;20459;-48
2022/09/15 10:47:44;;;;;;;7.40;1.20;;;20.20;1.00;;;;;;5054332;28;20393;-49
2022/09/15 10:50:18;;;;;;;3.57;1.10;;;21.00;1.00;;;;;;5053063;28;20416;-48
2022/09/15 10:53:09;;;;;;;3.77;1.20;;;21.40;99.90;;;;;;5052809;28;20404;-49
2022/09/15 10:55:51;;;;;;;6.17;1.10;;;21.80;99.90;;;;;;5052844;28;20511;-49
2022/09/15 10:58:38;;;;;;;2.00;1.10;;;21.70;99.90;;;;;;5045178;28;20472;-48
2022/09/15 11:01:22;;;;;;;3.83;1.27;;;22.10;99.90;;;;;;5052659;28;20443;-49
2022/09/15 11:04:02;;;;;;;2.93;1.10;;;22.70;99.90;;;;;;5052599;28;20416;-49
2022/09/15 11:06:31;;;;;;;5.40;1.10;;;22.70;99.90;;;;;;5052800;28;20547;-49
2022/09/15 11:09:19;;;;;;;3.00;1.10;;;22.90;99.90;;;;;;5053072;28;20402;-49
2022/09/15 11:12:00;;;;;;;2.20;1.00;;;23.30;99.90;;;;;;5053129;28;20404;-49
2022/09/15 11:14:43;;;;;;;2.93;1.00;;;23.60;99.90;;;;;;5052543;28;20401;-47
2022/09/15 11:17:33;;;;;;;3.83;1.40;;;23.90;99.90;;;;;;5053110;28;20413;-49
2022/09/15 11:20:38;;;;;;;4.50;1.10;;;24.50;99.90;;;;;;5052606;28;20424;-50
2022/09/15 11:23:19;;;;;;;4.03;1.27;;;24.10;99.90;;;;;;5052768;28;20455;-49
2022/09/15 11:25:55;;;;;;;2.63;1.13;;;23.20;99.90;;;;;;5052710;28;20558;-48
2022/09/15 11:28:32;;;;;;;5.07;1.50;;;21.90;99.90;;;;;;5052122;28;20416;-48
2022/09/15 11:31:01;;;;;;;2.30;1.20;;;21.10;99.90;;;;;;5052682;28;20425;-48
2022/09/15 11:33:35;;;;;;;6.23;1.23;;;20.50;99.90;;;;;;5052922;28;20405;-48
2022/09/15 11:36:14;;;;;;;4.50;1.17;;;19.50;99.90;;;;;;5051810;28;20432;-48
2022/09/15 11:39:00;;;;;;;2.50;1.10;;;18.60;99.90;;;;;;5051866;28;20419;-49
2022/09/15 11:41:37;;;;;;;4.50;1.33;;;17.70;99.90;;;;;;5052149;28;20393;-48
2022/09/15 11:44:20;;;;;;;7.93;1.50;;;17.20;99.90;;;;;;5052059;28;20412;-48
2022/09/15 11:47:07;;;;;;;8.87;2.43;;;17.00;99.90;;;;;;5052127;28;20802;-49
2022/09/15 11:49:56;;;;;;;6.83;1.73;;;17.90;99.90;;;;;;5051994;28;20393;-48
2022/09/15 11:52:43;;;;;;;5.67;1.50;;;19.30;99.90;;;;;;5052255;28;20412;-48
2022/09/15 11:55:36;;;;;;;6.97;1.20;;;20.90;99.90;;;;;;5052321;28;20413;-49
2022/09/15 11:58:18;;;;;;;4.37;1.30;;;22.20;99.90;;;;;;5051572;28;20448;-50
2022/09/15 12:00:53;;;;;;;5.23;1.53;;;22.10;99.90;;;;;;5051805;28;20745;-48
2022/09/15 12:03:22;;;;;;;6.20;1.20;;;21.10;99.90;;;;;;5031854;28;20400;-49
2022/09/15 12:05:56;;;;;;;10.67;1.60;;;20.50;99.90;;;;;;5031470;28;20461;-49
2022/09/15 12:08:45;;;;;;;4.70;1.40;;;19.70;99.90;;;;;;5031503;28;20459;-48
2022/09/15 12:11:21;;;;;;;4.40;1.50;;;19.10;99.90;;;;;;5031709;28;20913;-48
2022/09/15 12:13:47;;;;;;;9.00;1.70;;;18.70;99.90;;;;;;5031346;28;20405;-49
2022/09/15 12:16:14;;;;;;;4.77;1.60;;;18.50;99.90;;;;;;5031379;28;20896;-48
2022/09/15 12:18:56;;;;;;;7.33;1.40;;;18.40;99.90;;;;;;5031321;28;20445;-48
2022/09/15 12:21:43;;;;;;;3.50;1.70;;;18.10;99.90;;;;;;5031530;28;20521;-48
2022/09/15 12:24:32;;;;;;;4.10;1.20;;;17.80;99.90;;;;;;5031049;28;20445;-48
2022/09/15 12:27:01;;;;;;;5.67;1.33;;;17.60;99.90;;;;;;5031374;28;20398;-48
2022/09/15 12:29:26;;;;;;;3.70;1.13;;;17.80;99.90;;;;;;5042054;28;20425;-48
2022/09/15 12:32:23;;;;;;;4.13;1.60;;;18.00;99.90;;;;;;5051021;28;20420;-48
2022/09/15 12:35:16;;;;;;;7.37;1.60;;;18.70;99.90;;;;;;5049110;28;20222;-48
2022/09/15 12:37:56;;;;;;;7.90;1.60;;;19.50;99.90;;;;;;5050919;28;20933;-48
2022/09/15 12:40:37;;;;;;;3.47;1.47;;;19.70;99.90;;;;;;5051074;28;20894;-48
2022/09/15 12:43:17;;;;;;;5.57;0.93;;;20.10;99.90;;;;;;5050971;28;20404;-49
2022/09/15 12:45:57;;;;;;;7.43;1.40;;;20.50;99.90;;;;;;5050939;28;20483;-49
2022/09/15 12:48:30;;;;;;;4.73;1.20;;;21.20;99.90;;;;;;5050867;28;20420;-49
2022/09/15 12:51:01;;;;;;;2.00;1.20;;;22.00;99.90;;;;;;5050531;28;20404;-49
2022/09/15 12:53:33;;;;;;;4.93;1.33;;;22.50;99.90;;;;;;5050880;28;20448;-49
2022/09/15 12:56:06;;;;;;;3.03;1.40;;;23.50;99.90;;;;;;5050623;28;20428;-48
2022/09/15 12:58:44;;;;;;;7.03;1.33;;;23.80;99.90;;;;;;5044280;28;20484;-50
2022/09/15 13:01:25;;;;;;;3.13;1.50;;;23.60;99.90;;;;;;5050877;28;20499;-49
2022/09/15 13:03:54;;;;;;;7.00;1.50;;;23.00;99.90;;;;;;5050576;28;20408;-49
2022/09/15 13:06:29;;;;;;;4.40;1.10;;;23.30;99.90;;;;;;5050506;28;21098;-49
2022/09/15 13:09:02;;;;;;;3.50;1.30;;;23.50;99.90;;;;;;5050543;28;20412;-49
2022/09/15 13:11:35;;;;;;;4.80;1.47;;;23.70;99.90;;;;;;5050939;28;20474;-48
2022/09/15 13:14:05;;;;;;;6.67;1.20;;;22.90;99.90;;;;;;5050445;28;20397;-49
2022/09/15 13:16:42;;;;;;;2.23;1.50;;;22.10;99.90;;;;;;5050545;28;20420;-49